sensor_id;sensor_type;location;lat;lon;timestamp;P1;durP1;ratioP1;P2;durP2;ratioP2
2860;SDS011;1438;50.922;6.704;2023-05-02T00:01:28;83.00;;;51.80;;
2860;SDS011;1438;50.922;6.704;2023-05-02T00:03:54;84.30;;;50.53;;
2860;SDS011;1438;50.922;6.704;2023-05-02T00:06:20;90.30;;;53.55;;
2860;SDS011;1438;50.922;6.704;2023-05-02T00:08:47;94.80;;;54.08;;
2860;SDS011;1438;50.922;6.704;2023-05-02T00:11:14;97.03;;;55.88;;
2860;SDS011;1438;50.922;6.704;2023-05-02T00:13:40;91.60;;;54.40;;
2860;SDS011;1438;50.922;6.704;2023-05-02T00:16:07;97.18;;;57.85;;
2860;SDS011;1438;50.922;6.704;2023-05-02T00:18:35;108.03;;;58.05;;
2860;SDS011;1438;50.922;6.704;2023-05-02T00:21:01;96.40;;;55.97;;
2860;SDS011;1438;50.922;6.704;2023-05-02T00:23:27;110.05;;;59.35;;
2860;SDS011;1438;50.922;6.704;2023-05-02T00:25:53;108.28;;;60.40;;
2860;SDS011;1438;50.922;6.704;2023-05-02T00:28:19;98.18;;;55.83;;
2860;SDS011;1438;50.922;6.704;2023-05-02T00:30:45;101.32;;;57.15;;
2860;SDS011;1438;50.922;6.704;2023-05-02T00:33:11;106.20;;;58.97;;
2860;SDS011;1438;50.922;6.704;2023-05-02T00:35:38;108.68;;;60.75;;
2860;SDS011;1438;50.922;6.704;2023-05-02T00:38:05;106.07;;;58.28;;
2860;SDS011;1438;50.922;6.704;2023-05-02T00:40:40;104.10;;;57.83;;
2860;SDS011;1438;50.922;6.704;2023-05-02T00:43:07;98.10;;;61.05;;
2860;SDS011;1438;50.922;6.704;2023-05-02T00:45:33;114.25;;;61.65;;
2860;SDS011;1438;50.922;6.704;2023-05-02T00:47:59;113.40;;;60.13;;
2860;SDS011;1438;50.922;6.704;2023-05-02T00:50:26;123.78;;;63.15;;
2860;SDS011;1438;50.922;6.704;2023-05-02T00:52:53;122.88;;;64.80;;
2860;SDS011;1438;50.922;6.704;2023-05-02T00:55:19;120.72;;;64.55;;
2860;SDS011;1438;50.922;6.704;2023-05-02T00:57:46;122.95;;;61.05;;
2860;SDS011;1438;50.922;6.704;2023-05-02T01:00:12;118.28;;;67.38;;
2860;SDS011;1438;50.922;6.704;2023-05-02T01:05:09;131.03;;;69.10;;
2860;SDS011;1438;50.922;6.704;2023-05-02T01:07:46;128.30;;;68.40;;
2860;SDS011;1438;50.922;6.704;2023-05-02T01:15:09;151.32;;;71.20;;
2860;SDS011;1438;50.922;6.704;2023-05-02T01:17:36;130.52;;;65.15;;
2860;SDS011;1438;50.922;6.704;2023-05-02T01:20:07;133.70;;;66.53;;
2860;SDS011;1438;50.922;6.704;2023-05-02T01:22:35;131.95;;;68.35;;
2860;SDS011;1438;50.922;6.704;2023-05-02T01:28:04;153.17;;;74.50;;
2860;SDS011;1438;50.922;6.704;2023-05-02T01:30:20;132.00;;;68.30;;
2860;SDS011;1438;50.922;6.704;2023-05-02T01:32:47;139.18;;;70.30;;
2860;SDS011;1438;50.922;6.704;2023-05-02T01:35:15;141.85;;;70.85;;
2860;SDS011;1438;50.922;6.704;2023-05-02T01:37:42;150.13;;;77.68;;
2860;SDS011;1438;50.922;6.704;2023-05-02T01:40:09;140.32;;;71.07;;
2860;SDS011;1438;50.922;6.704;2023-05-02T01:42:36;140.50;;;69.40;;
2860;SDS011;1438;50.922;6.704;2023-05-02T01:45:04;145.38;;;69.72;;
2860;SDS011;1438;50.922;6.704;2023-05-02T01:47:32;125.75;;;66.53;;
2860;SDS011;1438;50.922;6.704;2023-05-02T01:50:00;133.48;;;64.10;;
2860;SDS011;1438;50.922;6.704;2023-05-02T01:52:28;136.63;;;67.85;;
2860;SDS011;1438;50.922;6.704;2023-05-02T01:54:54;147.38;;;70.00;;
2860;SDS011;1438;50.922;6.704;2023-05-02T01:57:22;131.65;;;63.63;;
2860;SDS011;1438;50.922;6.704;2023-05-02T01:59:48;107.95;;;49.10;;
2860;SDS011;1438;50.922;6.704;2023-05-02T02:02:15;145.20;;;64.38;;
2860;SDS011;1438;50.922;6.704;2023-05-02T02:04:41;135.55;;;64.57;;
2860;SDS011;1438;50.922;6.704;2023-05-02T02:07:09;148.07;;;66.97;;
2860;SDS011;1438;50.922;6.704;2023-05-02T02:09:35;135.90;;;57.20;;
2860;SDS011;1438;50.922;6.704;2023-05-02T02:12:06;135.45;;;62.42;;
2860;SDS011;1438;50.922;6.704;2023-05-02T02:14:35;127.05;;;59.78;;
2860;SDS011;1438;50.922;6.704;2023-05-02T02:17:04;146.32;;;60.92;;
2860;SDS011;1438;50.922;6.704;2023-05-02T02:19:31;134.00;;;57.45;;
2860;SDS011;1438;50.922;6.704;2023-05-02T02:21:57;128.52;;;57.95;;
2860;SDS011;1438;50.922;6.704;2023-05-02T02:24:23;131.90;;;58.75;;
2860;SDS011;1438;50.922;6.704;2023-05-02T02:26:50;130.20;;;55.47;;
2860;SDS011;1438;50.922;6.704;2023-05-02T02:29:16;127.57;;;53.90;;
2860;SDS011;1438;50.922;6.704;2023-05-02T02:31:42;128.60;;;56.15;;
2860;SDS011;1438;50.922;6.704;2023-05-02T02:34:08;135.50;;;56.40;;
2860;SDS011;1438;50.922;6.704;2023-05-02T02:36:45;115.55;;;52.92;;
2860;SDS011;1438;50.922;6.704;2023-05-02T02:39:15;130.00;;;53.78;;
2860;SDS011;1438;50.922;6.704;2023-05-02T02:41:47;119.07;;;51.85;;
2860;SDS011;1438;50.922;6.704;2023-05-02T02:44:30;116.97;;;49.28;;
2860;SDS011;1438;50.922;6.704;2023-05-02T02:47:04;126.80;;;49.38;;
2860;SDS011;1438;50.922;6.704;2023-05-02T02:49:43;119.03;;;50.22;;
2860;SDS011;1438;50.922;6.704;2023-05-02T02:54:55;127.80;;;50.97;;
2860;SDS011;1438;50.922;6.704;2023-05-02T02:58:06;120.70;;;53.40;;
2860;SDS011;1438;50.922;6.704;2023-05-02T03:00:18;120.63;;;51.63;;
2860;SDS011;1438;50.922;6.704;2023-05-02T03:02:45;110.70;;;50.92;;
2860;SDS011;1438;50.922;6.704;2023-05-02T03:05:11;114.28;;;49.30;;
2860;SDS011;1438;50.922;6.704;2023-05-02T03:07:38;117.30;;;50.20;;
2860;SDS011;1438;50.922;6.704;2023-05-02T03:10:05;121.65;;;51.13;;
2860;SDS011;1438;50.922;6.704;2023-05-02T03:12:31;100.78;;;48.58;;
2860;SDS011;1438;50.922;6.704;2023-05-02T03:17:47;113.70;;;49.00;;
2860;SDS011;1438;50.922;6.704;2023-05-02T03:20:13;105.47;;;47.38;;
2860;SDS011;1438;50.922;6.704;2023-05-02T03:22:39;120.15;;;51.17;;
2860;SDS011;1438;50.922;6.704;2023-05-02T03:25:05;102.55;;;49.75;;
2860;SDS011;1438;50.922;6.704;2023-05-02T03:27:31;106.32;;;53.13;;
2860;SDS011;1438;50.922;6.704;2023-05-02T03:29:57;114.28;;;53.78;;
2860;SDS011;1438;50.922;6.704;2023-05-02T03:32:24;118.60;;;51.38;;
2860;SDS011;1438;50.922;6.704;2023-05-02T03:34:51;113.70;;;52.28;;
2860;SDS011;1438;50.922;6.704;2023-05-02T03:37:22;116.15;;;52.05;;
2860;SDS011;1438;50.922;6.704;2023-05-02T03:39:48;101.10;;;50.47;;
2860;SDS011;1438;50.922;6.704;2023-05-02T03:42:14;108.05;;;52.42;;
2860;SDS011;1438;50.922;6.704;2023-05-02T03:44:40;102.40;;;50.05;;
2860;SDS011;1438;50.922;6.704;2023-05-02T03:47:06;110.90;;;51.83;;
2860;SDS011;1438;50.922;6.704;2023-05-02T03:49:35;120.38;;;54.85;;
2860;SDS011;1438;50.922;6.704;2023-05-02T03:52:01;111.07;;;52.75;;
2860;SDS011;1438;50.922;6.704;2023-05-02T03:54:30;106.43;;;51.75;;
2860;SDS011;1438;50.922;6.704;2023-05-02T03:56:56;117.13;;;54.38;;
2860;SDS011;1438;50.922;6.704;2023-05-02T03:59:23;113.63;;;51.63;;
2860;SDS011;1438;50.922;6.704;2023-05-02T04:01:49;112.83;;;52.60;;
2860;SDS011;1438;50.922;6.704;2023-05-02T04:04:15;101.05;;;51.10;;
2860;SDS011;1438;50.922;6.704;2023-05-02T04:06:41;116.88;;;55.03;;
2860;SDS011;1438;50.922;6.704;2023-05-02T04:09:07;101.30;;;52.37;;
2860;SDS011;1438;50.922;6.704;2023-05-02T04:11:33;121.90;;;56.33;;
2860;SDS011;1438;50.922;6.704;2023-05-02T04:13:59;112.15;;;52.17;;
2860;SDS011;1438;50.922;6.704;2023-05-02T04:16:26;118.53;;;55.35;;
2860;SDS011;1438;50.922;6.704;2023-05-02T04:18:52;114.75;;;51.70;;
2860;SDS011;1438;50.922;6.704;2023-05-02T04:21:18;114.25;;;51.20;;
2860;SDS011;1438;50.922;6.704;2023-05-02T04:23:44;111.68;;;50.15;;
2860;SDS011;1438;50.922;6.704;2023-05-02T04:26:10;100.07;;;50.75;;
2860;SDS011;1438;50.922;6.704;2023-05-02T04:28:36;110.70;;;50.58;;
2860;SDS011;1438;50.922;6.704;2023-05-02T04:31:02;90.78;;;43.03;;
2860;SDS011;1438;50.922;6.704;2023-05-02T04:33:28;89.68;;;43.30;;
2860;SDS011;1438;50.922;6.704;2023-05-02T04:35:55;99.28;;;46.80;;
2860;SDS011;1438;50.922;6.704;2023-05-02T04:38:21;80.72;;;36.95;;
2860;SDS011;1438;50.922;6.704;2023-05-02T04:40:49;80.80;;;37.58;;
2860;SDS011;1438;50.922;6.704;2023-05-02T04:43:16;78.05;;;36.03;;
2860;SDS011;1438;50.922;6.704;2023-05-02T04:45:42;83.85;;;37.70;;
2860;SDS011;1438;50.922;6.704;2023-05-02T04:48:08;79.13;;;36.55;;
2860;SDS011;1438;50.922;6.704;2023-05-02T04:50:34;60.20;;;33.78;;
2860;SDS011;1438;50.922;6.704;2023-05-02T04:53:00;68.60;;;31.13;;
2860;SDS011;1438;50.922;6.704;2023-05-02T04:55:26;61.50;;;31.77;;
2860;SDS011;1438;50.922;6.704;2023-05-02T04:57:52;60.85;;;30.30;;
2860;SDS011;1438;50.922;6.704;2023-05-02T05:00:18;66.07;;;29.13;;
2860;SDS011;1438;50.922;6.704;2023-05-02T05:02:45;58.92;;;28.17;;
2860;SDS011;1438;50.922;6.704;2023-05-02T05:05:11;64.35;;;28.55;;
2860;SDS011;1438;50.922;6.704;2023-05-02T05:07:37;60.63;;;27.38;;
2860;SDS011;1438;50.922;6.704;2023-05-02T05:10:04;51.65;;;26.05;;
2860;SDS011;1438;50.922;6.704;2023-05-02T05:12:30;52.95;;;26.77;;
2860;SDS011;1438;50.922;6.704;2023-05-02T05:14:56;55.67;;;25.98;;
2860;SDS011;1438;50.922;6.704;2023-05-02T05:17:22;52.15;;;24.52;;
2860;SDS011;1438;50.922;6.704;2023-05-02T05:19:48;46.80;;;24.43;;
2860;SDS011;1438;50.922;6.704;2023-05-02T05:22:14;43.17;;;23.65;;
2860;SDS011;1438;50.922;6.704;2023-05-02T05:24:40;45.38;;;22.40;;
2860;SDS011;1438;50.922;6.704;2023-05-02T05:27:06;43.42;;;22.38;;
2860;SDS011;1438;50.922;6.704;2023-05-02T05:29:33;42.58;;;22.75;;
2860;SDS011;1438;50.922;6.704;2023-05-02T05:32:00;40.60;;;22.35;;
2860;SDS011;1438;50.922;6.704;2023-05-02T05:34:26;41.20;;;21.58;;
2860;SDS011;1438;50.922;6.704;2023-05-02T05:36:52;45.15;;;23.08;;
2860;SDS011;1438;50.922;6.704;2023-05-02T05:39:18;43.90;;;22.70;;
2860;SDS011;1438;50.922;6.704;2023-05-02T05:41:44;39.58;;;22.02;;
2860;SDS011;1438;50.922;6.704;2023-05-02T05:44:10;45.80;;;21.98;;
2860;SDS011;1438;50.922;6.704;2023-05-02T05:46:36;47.33;;;21.40;;
2860;SDS011;1438;50.922;6.704;2023-05-02T05:49:02;42.72;;;21.15;;
2860;SDS011;1438;50.922;6.704;2023-05-02T05:51:28;42.35;;;22.50;;
2860;SDS011;1438;50.922;6.704;2023-05-02T05:53:55;41.20;;;22.58;;
2860;SDS011;1438;50.922;6.704;2023-05-02T05:56:21;42.95;;;23.17;;
2860;SDS011;1438;50.922;6.704;2023-05-02T05:58:47;43.50;;;22.63;;
2860;SDS011;1438;50.922;6.704;2023-05-02T06:01:13;46.20;;;22.00;;
2860;SDS011;1438;50.922;6.704;2023-05-02T06:03:39;40.60;;;22.08;;
2860;SDS011;1438;50.922;6.704;2023-05-02T06:06:05;40.60;;;21.25;;
2860;SDS011;1438;50.922;6.704;2023-05-02T06:08:31;41.38;;;20.45;;
2860;SDS011;1438;50.922;6.704;2023-05-02T06:10:57;48.80;;;22.48;;
2860;SDS011;1438;50.922;6.704;2023-05-02T06:13:23;39.47;;;22.15;;
2860;SDS011;1438;50.922;6.704;2023-05-02T06:15:50;41.85;;;22.23;;
2860;SDS011;1438;50.922;6.704;2023-05-02T06:18:16;36.72;;;21.17;;
2860;SDS011;1438;50.922;6.704;2023-05-02T06:20:42;38.42;;;20.65;;
2860;SDS011;1438;50.922;6.704;2023-05-02T06:23:08;39.83;;;21.25;;
2860;SDS011;1438;50.922;6.704;2023-05-02T06:25:37;42.40;;;21.58;;
2860;SDS011;1438;50.922;6.704;2023-05-02T06:28:03;44.10;;;21.90;;
2860;SDS011;1438;50.922;6.704;2023-05-02T06:30:30;45.17;;;20.88;;
2860;SDS011;1438;50.922;6.704;2023-05-02T06:32:56;52.37;;;21.90;;
2860;SDS011;1438;50.922;6.704;2023-05-02T06:35:22;48.63;;;23.87;;
2860;SDS011;1438;50.922;6.704;2023-05-02T06:37:48;41.70;;;21.83;;
2860;SDS011;1438;50.922;6.704;2023-05-02T06:40:14;38.53;;;20.27;;
2860;SDS011;1438;50.922;6.704;2023-05-02T06:42:40;47.20;;;23.38;;
2860;SDS011;1438;50.922;6.704;2023-05-02T06:45:06;39.30;;;22.60;;
2860;SDS011;1438;50.922;6.704;2023-05-02T06:47:32;41.55;;;21.27;;
2860;SDS011;1438;50.922;6.704;2023-05-02T06:49:58;36.47;;;20.70;;
2860;SDS011;1438;50.922;6.704;2023-05-02T06:52:24;40.80;;;20.77;;
2860;SDS011;1438;50.922;6.704;2023-05-02T06:54:50;41.75;;;20.50;;
2860;SDS011;1438;50.922;6.704;2023-05-02T06:57:16;36.57;;;20.47;;
2860;SDS011;1438;50.922;6.704;2023-05-02T06:59:42;40.05;;;22.00;;
2860;SDS011;1438;50.922;6.704;2023-05-02T07:02:08;36.60;;;19.98;;
2860;SDS011;1438;50.922;6.704;2023-05-02T07:04:34;37.23;;;19.57;;
2860;SDS011;1438;50.922;6.704;2023-05-02T07:07:00;37.73;;;20.70;;
2860;SDS011;1438;50.922;6.704;2023-05-02T07:09:26;39.35;;;21.63;;
2860;SDS011;1438;50.922;6.704;2023-05-02T07:11:52;35.90;;;19.80;;
2860;SDS011;1438;50.922;6.704;2023-05-02T07:14:18;35.10;;;19.90;;
2860;SDS011;1438;50.922;6.704;2023-05-02T07:16:44;31.77;;;18.10;;
2860;SDS011;1438;50.922;6.704;2023-05-02T07:19:10;35.70;;;18.77;;
2860;SDS011;1438;50.922;6.704;2023-05-02T07:21:36;25.83;;;16.50;;
2860;SDS011;1438;50.922;6.704;2023-05-02T07:24:02;25.80;;;16.47;;
2860;SDS011;1438;50.922;6.704;2023-05-02T07:26:28;33.50;;;16.48;;
2860;SDS011;1438;50.922;6.704;2023-05-02T07:28:54;31.92;;;16.48;;
2860;SDS011;1438;50.922;6.704;2023-05-02T07:31:20;25.07;;;14.10;;
2860;SDS011;1438;50.922;6.704;2023-05-02T07:33:46;20.20;;;13.67;;
2860;SDS011;1438;50.922;6.704;2023-05-02T07:36:12;17.80;;;12.00;;
2860;SDS011;1438;50.922;6.704;2023-05-02T07:38:38;16.95;;;11.65;;
2860;SDS011;1438;50.922;6.704;2023-05-02T07:41:04;18.80;;;10.50;;
2860;SDS011;1438;50.922;6.704;2023-05-02T07:43:30;14.43;;;10.10;;
2860;SDS011;1438;50.922;6.704;2023-05-02T07:45:56;17.40;;;10.98;;
2860;SDS011;1438;50.922;6.704;2023-05-02T07:48:22;18.38;;;10.02;;
2860;SDS011;1438;50.922;6.704;2023-05-02T07:50:48;17.20;;;12.00;;
2860;SDS011;1438;50.922;6.704;2023-05-02T07:53:14;21.03;;;10.30;;
2860;SDS011;1438;50.922;6.704;2023-05-02T07:55:40;18.42;;;10.80;;
2860;SDS011;1438;50.922;6.704;2023-05-02T07:58:06;18.60;;;13.00;;
2860;SDS011;1438;50.922;6.704;2023-05-02T08:00:32;21.23;;;11.20;;
2860;SDS011;1438;50.922;6.704;2023-05-02T08:02:58;13.77;;;8.95;;
2860;SDS011;1438;50.922;6.704;2023-05-02T08:05:24;7.68;;;6.13;;
2860;SDS011;1438;50.922;6.704;2023-05-02T08:07:50;8.27;;;6.40;;
2860;SDS011;1438;50.922;6.704;2023-05-02T08:10:16;8.20;;;5.20;;
2860;SDS011;1438;50.922;6.704;2023-05-02T08:12:42;8.93;;;5.00;;
2860;SDS011;1438;50.922;6.704;2023-05-02T08:15:09;11.57;;;4.77;;
2860;SDS011;1438;50.922;6.704;2023-05-02T08:17:37;6.97;;;5.05;;
2860;SDS011;1438;50.922;6.704;2023-05-02T08:20:03;7.87;;;4.80;;
2860;SDS011;1438;50.922;6.704;2023-05-02T08:22:29;9.83;;;4.63;;
2860;SDS011;1438;50.922;6.704;2023-05-02T08:24:55;5.57;;;3.40;;
2860;SDS011;1438;50.922;6.704;2023-05-02T08:27:21;7.30;;;3.60;;
2860;SDS011;1438;50.922;6.704;2023-05-02T08:29:47;7.70;;;3.17;;
2860;SDS011;1438;50.922;6.704;2023-05-02T08:32:13;6.33;;;3.60;;
2860;SDS011;1438;50.922;6.704;2023-05-02T08:34:39;6.27;;;3.20;;
2860;SDS011;1438;50.922;6.704;2023-05-02T08:37:06;6.40;;;3.30;;
2860;SDS011;1438;50.922;6.704;2023-05-02T08:39:33;4.87;;;2.80;;
2860;SDS011;1438;50.922;6.704;2023-05-02T08:41:59;8.30;;;2.92;;
2860;SDS011;1438;50.922;6.704;2023-05-02T08:44:26;5.57;;;3.13;;
2860;SDS011;1438;50.922;6.704;2023-05-02T08:46:52;5.23;;;3.47;;
2860;SDS011;1438;50.922;6.704;2023-05-02T08:49:19;3.20;;;2.40;;
2860;SDS011;1438;50.922;6.704;2023-05-02T08:51:45;3.13;;;2.10;;
2860;SDS011;1438;50.922;6.704;2023-05-02T08:54:15;7.80;;;2.60;;
2860;SDS011;1438;50.922;6.704;2023-05-02T08:56:42;4.47;;;2.60;;
2860;SDS011;1438;50.922;6.704;2023-05-02T08:59:08;3.37;;;1.80;;
2860;SDS011;1438;50.922;6.704;2023-05-02T09:01:34;5.00;;;2.65;;
2860;SDS011;1438;50.922;6.704;2023-05-02T09:04:00;3.70;;;2.23;;
2860;SDS011;1438;50.922;6.704;2023-05-02T09:06:27;4.80;;;3.73;;
2860;SDS011;1438;50.922;6.704;2023-05-02T09:08:53;6.20;;;3.00;;
2860;SDS011;1438;50.922;6.704;2023-05-02T09:11:19;6.37;;;2.13;;
2860;SDS011;1438;50.922;6.704;2023-05-02T09:13:49;6.67;;;2.37;;
2860;SDS011;1438;50.922;6.704;2023-05-02T09:18:42;7.27;;;2.73;;
2860;SDS011;1438;50.922;6.704;2023-05-02T09:21:13;4.47;;;2.37;;
2860;SDS011;1438;50.922;6.704;2023-05-02T09:23:41;3.63;;;2.20;;
2860;SDS011;1438;50.922;6.704;2023-05-02T09:26:10;8.43;;;3.00;;
2860;SDS011;1438;50.922;6.704;2023-05-02T09:28:37;5.03;;;2.40;;
2860;SDS011;1438;50.922;6.704;2023-05-02T09:31:08;13.27;;;2.83;;
2860;SDS011;1438;50.922;6.704;2023-05-02T09:33:35;5.60;;;2.80;;
2860;SDS011;1438;50.922;6.704;2023-05-02T09:36:01;6.13;;;2.80;;
2860;SDS011;1438;50.922;6.704;2023-05-02T09:38:28;6.10;;;2.70;;
2860;SDS011;1438;50.922;6.704;2023-05-02T09:40:54;10.73;;;3.10;;
2860;SDS011;1438;50.922;6.704;2023-05-02T09:43:20;4.93;;;2.37;;
2860;SDS011;1438;50.922;6.704;2023-05-02T09:46:02;3.10;;;2.20;;
2860;SDS011;1438;50.922;6.704;2023-05-02T09:48:28;6.07;;;2.70;;
2860;SDS011;1438;50.922;6.704;2023-05-02T09:50:55;4.17;;;2.50;;
2860;SDS011;1438;50.922;6.704;2023-05-02T09:53:21;4.90;;;2.60;;
2860;SDS011;1438;50.922;6.704;2023-05-02T09:55:53;7.53;;;2.70;;
2860;SDS011;1438;50.922;6.704;2023-05-02T09:58:23;7.83;;;2.87;;
2860;SDS011;1438;50.922;6.704;2023-05-02T10:00:49;7.80;;;2.20;;
2860;SDS011;1438;50.922;6.704;2023-05-02T10:03:16;4.83;;;2.80;;
2860;SDS011;1438;50.922;6.704;2023-05-02T10:05:43;9.63;;;3.20;;
2860;SDS011;1438;50.922;6.704;2023-05-02T10:08:10;6.30;;;2.80;;
2860;SDS011;1438;50.922;6.704;2023-05-02T10:10:37;8.40;;;3.20;;
2860;SDS011;1438;50.922;6.704;2023-05-02T10:13:04;5.33;;;3.37;;
2860;SDS011;1438;50.922;6.704;2023-05-02T10:15:31;8.00;;;3.03;;
2860;SDS011;1438;50.922;6.704;2023-05-02T10:17:58;8.30;;;3.50;;
2860;SDS011;1438;50.922;6.704;2023-05-02T10:20:31;5.70;;;3.53;;
2860;SDS011;1438;50.922;6.704;2023-05-02T10:23:01;8.80;;;3.43;;
2860;SDS011;1438;50.922;6.704;2023-05-02T10:25:27;8.67;;;4.83;;
2860;SDS011;1438;50.922;6.704;2023-05-02T10:27:55;9.40;;;3.77;;
2860;SDS011;1438;50.922;6.704;2023-05-02T10:30:22;6.00;;;3.87;;
2860;SDS011;1438;50.922;6.704;2023-05-02T10:32:48;8.60;;;3.50;;
2860;SDS011;1438;50.922;6.704;2023-05-02T10:35:16;8.27;;;3.50;;
2860;SDS011;1438;50.922;6.704;2023-05-02T10:37:42;5.87;;;4.13;;
2860;SDS011;1438;50.922;6.704;2023-05-02T10:40:09;7.10;;;3.00;;
2860;SDS011;1438;50.922;6.704;2023-05-02T10:42:36;9.10;;;3.20;;
2860;SDS011;1438;50.922;6.704;2023-05-02T10:45:03;6.63;;;3.40;;
2860;SDS011;1438;50.922;6.704;2023-05-02T10:47:29;7.07;;;2.77;;
2860;SDS011;1438;50.922;6.704;2023-05-02T10:50:00;9.83;;;2.93;;
2860;SDS011;1438;50.922;6.704;2023-05-02T10:52:31;4.57;;;2.73;;
2860;SDS011;1438;50.922;6.704;2023-05-02T11:00:28;10.37;;;2.83;;
2860;SDS011;1438;50.922;6.704;2023-05-02T11:02:55;4.83;;;3.10;;
2860;SDS011;1438;50.922;6.704;2023-05-02T11:05:21;4.70;;;3.07;;
2860;SDS011;1438;50.922;6.704;2023-05-02T11:08:33;7.60;;;3.40;;
2860;SDS011;1438;50.922;6.704;2023-05-02T11:10:40;10.00;;;4.47;;
2860;SDS011;1438;50.922;6.704;2023-05-02T11:13:06;5.53;;;4.73;;
2860;SDS011;1438;50.922;6.704;2023-05-02T11:18:08;8.43;;;5.23;;
2860;SDS011;1438;50.922;6.704;2023-05-02T11:20:37;9.63;;;4.40;;
2860;SDS011;1438;50.922;6.704;2023-05-02T11:25:48;7.73;;;3.40;;
2860;SDS011;1438;50.922;6.704;2023-05-02T11:30:53;9.40;;;4.40;;
2860;SDS011;1438;50.922;6.704;2023-05-02T11:33:19;12.40;;;5.30;;
2860;SDS011;1438;50.922;6.704;2023-05-02T11:35:45;10.70;;;5.43;;
2860;SDS011;1438;50.922;6.704;2023-05-02T11:38:13;10.87;;;5.40;;
2860;SDS011;1438;50.922;6.704;2023-05-02T11:40:40;13.03;;;6.20;;
2860;SDS011;1438;50.922;6.704;2023-05-02T11:43:12;9.13;;;5.30;;
2860;SDS011;1438;50.922;6.704;2023-05-02T11:45:39;10.27;;;5.93;;
2860;SDS011;1438;50.922;6.704;2023-05-02T11:48:07;10.47;;;4.80;;
2860;SDS011;1438;50.922;6.704;2023-05-02T11:50:34;14.90;;;4.53;;
2860;SDS011;1438;50.922;6.704;2023-05-02T11:53:08;9.23;;;4.57;;
2860;SDS011;1438;50.922;6.704;2023-05-02T11:55:34;7.93;;;4.60;;
2860;SDS011;1438;50.922;6.704;2023-05-02T11:58:00;15.00;;;5.13;;
2860;SDS011;1438;50.922;6.704;2023-05-02T12:00:26;7.10;;;3.30;;
2860;SDS011;1438;50.922;6.704;2023-05-02T12:02:52;11.43;;;3.57;;
2860;SDS011;1438;50.922;6.704;2023-05-02T12:05:26;10.47;;;3.53;;
2860;SDS011;1438;50.922;6.704;2023-05-02T12:07:53;10.47;;;3.80;;
2860;SDS011;1438;50.922;6.704;2023-05-02T12:10:20;6.00;;;4.40;;
2860;SDS011;1438;50.922;6.704;2023-05-02T12:12:46;4.50;;;3.10;;
2860;SDS011;1438;50.922;6.704;2023-05-02T12:15:12;7.00;;;3.70;;
2860;SDS011;1438;50.922;6.704;2023-05-02T12:17:42;5.33;;;3.47;;
2860;SDS011;1438;50.922;6.704;2023-05-02T12:20:08;7.83;;;4.20;;
2860;SDS011;1438;50.922;6.704;2023-05-02T12:22:35;7.07;;;3.80;;
2860;SDS011;1438;50.922;6.704;2023-05-02T12:25:01;9.03;;;4.90;;
2860;SDS011;1438;50.922;6.704;2023-05-02T12:27:29;7.70;;;4.30;;
2860;SDS011;1438;50.922;6.704;2023-05-02T12:29:57;9.57;;;4.83;;
2860;SDS011;1438;50.922;6.704;2023-05-02T12:32:41;7.70;;;4.77;;
2860;SDS011;1438;50.922;6.704;2023-05-02T12:35:21;6.20;;;4.10;;
2860;SDS011;1438;50.922;6.704;2023-05-02T12:37:47;10.73;;;4.53;;
2860;SDS011;1438;50.922;6.704;2023-05-02T12:40:16;9.40;;;5.03;;
2860;SDS011;1438;50.922;6.704;2023-05-02T12:42:42;7.10;;;4.90;;
2860;SDS011;1438;50.922;6.704;2023-05-02T12:45:22;8.27;;;4.57;;
2860;SDS011;1438;50.922;6.704;2023-05-02T12:47:49;9.00;;;4.90;;
2860;SDS011;1438;50.922;6.704;2023-05-02T12:50:15;8.47;;;5.03;;
2860;SDS011;1438;50.922;6.704;2023-05-02T12:52:44;8.87;;;4.30;;
2860;SDS011;1438;50.922;6.704;2023-05-02T12:55:15;9.13;;;5.10;;
2860;SDS011;1438;50.922;6.704;2023-05-02T12:57:41;8.33;;;4.57;;
2860;SDS011;1438;50.922;6.704;2023-05-02T13:00:07;5.53;;;4.37;;
2860;SDS011;1438;50.922;6.704;2023-05-02T13:02:34;8.03;;;4.80;;
2860;SDS011;1438;50.922;6.704;2023-05-02T13:05:00;8.10;;;3.83;;
2860;SDS011;1438;50.922;6.704;2023-05-02T13:07:27;6.60;;;4.20;;
2860;SDS011;1438;50.922;6.704;2023-05-02T13:09:53;8.33;;;4.70;;
2860;SDS011;1438;50.922;6.704;2023-05-02T13:12:19;3.40;;;3.07;;
2860;SDS011;1438;50.922;6.704;2023-05-02T13:14:45;11.57;;;3.80;;
2860;SDS011;1438;50.922;6.704;2023-05-02T13:17:11;10.07;;;3.80;;
2860;SDS011;1438;50.922;6.704;2023-05-02T13:19:37;6.80;;;3.50;;
2860;SDS011;1438;50.922;6.704;2023-05-02T13:22:03;12.20;;;3.90;;
2860;SDS011;1438;50.922;6.704;2023-05-02T13:24:29;4.90;;;3.23;;
2860;SDS011;1438;50.922;6.704;2023-05-02T13:26:55;7.53;;;3.40;;
2860;SDS011;1438;50.922;6.704;2023-05-02T13:29:21;5.03;;;3.87;;
2860;SDS011;1438;50.922;6.704;2023-05-02T13:31:47;7.63;;;3.87;;
2860;SDS011;1438;50.922;6.704;2023-05-02T13:34:13;12.43;;;3.47;;
2860;SDS011;1438;50.922;6.704;2023-05-02T13:36:39;6.37;;;3.20;;
2860;SDS011;1438;50.922;6.704;2023-05-02T13:39:09;8.50;;;3.33;;
2860;SDS011;1438;50.922;6.704;2023-05-02T13:41:36;5.20;;;3.00;;
2860;SDS011;1438;50.922;6.704;2023-05-02T13:44:03;6.60;;;3.80;;
2860;SDS011;1438;50.922;6.704;2023-05-02T13:46:29;6.50;;;3.10;;
2860;SDS011;1438;50.922;6.704;2023-05-02T13:49:00;7.63;;;3.60;;
2860;SDS011;1438;50.922;6.704;2023-05-02T13:51:26;6.63;;;3.57;;
2860;SDS011;1438;50.922;6.704;2023-05-02T13:53:52;6.50;;;3.40;;
2860;SDS011;1438;50.922;6.704;2023-05-02T13:56:19;6.33;;;3.40;;
2860;SDS011;1438;50.922;6.704;2023-05-02T13:58:45;9.30;;;3.43;;
2860;SDS011;1438;50.922;6.704;2023-05-02T14:01:11;4.60;;;3.13;;
2860;SDS011;1438;50.922;6.704;2023-05-02T14:03:37;4.30;;;3.53;;
2860;SDS011;1438;50.922;6.704;2023-05-02T14:06:03;5.43;;;3.90;;
2860;SDS011;1438;50.922;6.704;2023-05-02T14:08:30;5.97;;;3.30;;
2860;SDS011;1438;50.922;6.704;2023-05-02T14:10:56;7.17;;;4.20;;
2860;SDS011;1438;50.922;6.704;2023-05-02T14:13:22;5.40;;;3.40;;
2860;SDS011;1438;50.922;6.704;2023-05-02T14:15:48;9.57;;;3.40;;
2860;SDS011;1438;50.922;6.704;2023-05-02T14:18:14;6.90;;;3.77;;
2860;SDS011;1438;50.922;6.704;2023-05-02T14:20:41;6.47;;;3.60;;
2860;SDS011;1438;50.922;6.704;2023-05-02T14:23:07;6.87;;;3.37;;
2860;SDS011;1438;50.922;6.704;2023-05-02T14:25:34;6.13;;;3.63;;
2860;SDS011;1438;50.922;6.704;2023-05-02T14:28:00;9.73;;;3.50;;
2860;SDS011;1438;50.922;6.704;2023-05-02T14:30:27;6.20;;;3.80;;
2860;SDS011;1438;50.922;6.704;2023-05-02T14:32:53;6.23;;;3.57;;
2860;SDS011;1438;50.922;6.704;2023-05-02T14:35:19;6.40;;;3.20;;
2860;SDS011;1438;50.922;6.704;2023-05-02T14:37:45;6.63;;;3.17;;
2860;SDS011;1438;50.922;6.704;2023-05-02T14:40:12;6.70;;;3.30;;
2860;SDS011;1438;50.922;6.704;2023-05-02T14:42:41;7.83;;;4.13;;
2860;SDS011;1438;50.922;6.704;2023-05-02T14:45:09;3.90;;;3.37;;
2860;SDS011;1438;50.922;6.704;2023-05-02T14:47:36;5.93;;;2.90;;
2860;SDS011;1438;50.922;6.704;2023-05-02T14:50:02;5.37;;;3.00;;
2860;SDS011;1438;50.922;6.704;2023-05-02T14:52:29;8.10;;;4.30;;
2860;SDS011;1438;50.922;6.704;2023-05-02T14:54:57;10.70;;;4.47;;
2860;SDS011;1438;50.922;6.704;2023-05-02T14:57:24;6.50;;;4.90;;
2860;SDS011;1438;50.922;6.704;2023-05-02T14:59:50;6.63;;;3.60;;
2860;SDS011;1438;50.922;6.704;2023-05-02T15:02:16;9.50;;;4.23;;
2860;SDS011;1438;50.922;6.704;2023-05-02T15:04:42;6.40;;;3.43;;
2860;SDS011;1438;50.922;6.704;2023-05-02T15:07:09;5.57;;;3.70;;
2860;SDS011;1438;50.922;6.704;2023-05-02T15:09:35;5.67;;;3.30;;
2860;SDS011;1438;50.922;6.704;2023-05-02T15:12:01;7.40;;;3.70;;
2860;SDS011;1438;50.922;6.704;2023-05-02T15:14:27;6.67;;;3.80;;
2860;SDS011;1438;50.922;6.704;2023-05-02T15:16:53;8.40;;;4.40;;
2860;SDS011;1438;50.922;6.704;2023-05-02T15:19:19;7.30;;;4.40;;
2860;SDS011;1438;50.922;6.704;2023-05-02T15:21:54;5.20;;;3.27;;
2860;SDS011;1438;50.922;6.704;2023-05-02T15:24:23;10.57;;;4.10;;
2860;SDS011;1438;50.922;6.704;2023-05-02T15:26:49;6.27;;;3.90;;